sensor_id;sensor_type;location;lat;lon;timestamp;pressure;altitude;pressure_sealevel;temperature;humidity
72685;BME280;61365;52.162;4.500;2023-03-09T00:00:12;99223.72;;;1.42;88.63
72685;BME280;61365;52.162;4.500;2023-03-09T00:02:41;99225.53;;;1.49;88.03
72685;BME280;61365;52.162;4.500;2023-03-09T00:05:11;99222.13;;;1.56;88.10
72685;BME280;61365;52.162;4.500;2023-03-09T00:07:38;99218.44;;;1.32;88.58
72685;BME280;61365;52.162;4.500;2023-03-09T00:10:04;99210.63;;;1.26;89.29
72685;BME280;61365;52.162;4.500;2023-03-09T00:12:31;99216.81;;;1.41;88.75
72685;BME280;61365;52.162;4.500;2023-03-09T00:14:57;99208.00;;;1.22;89.43
72685;BME280;61365;52.162;4.500;2023-03-09T00:17:24;99207.97;;;1.18;88.97
72685;BME280;61365;52.162;4.500;2023-03-09T00:19:50;99205.41;;;1.20;89.13
72685;BME280;61365;52.162;4.500;2023-03-09T00:22:27;99227.00;;;1.28;88.88
72685;BME280;61365;52.162;4.500;2023-03-09T00:24:54;99239.13;;;1.31;89.20
72685;BME280;61365;52.162;4.500;2023-03-09T00:27:21;99248.69;;;1.38;89.00
72685;BME280;61365;52.162;4.500;2023-03-09T00:29:48;99245.22;;;1.38;88.85
72685;BME280;61365;52.162;4.500;2023-03-09T00:32:14;99259.97;;;1.49;87.80
72685;BME280;61365;52.162;4.500;2023-03-09T00:34:41;99267.00;;;1.60;85.69
72685;BME280;61365;52.162;4.500;2023-03-09T00:37:07;99266.81;;;1.43;86.32
72685;BME280;61365;52.162;4.500;2023-03-09T00:39:33;99265.19;;;1.54;85.11
72685;BME280;61365;52.162;4.500;2023-03-09T00:42:00;99259.97;;;1.48;86.11
72685;BME280;61365;52.162;4.500;2023-03-09T00:44:26;99243.16;;;1.09;86.96
72685;BME280;61365;52.162;4.500;2023-03-09T00:46:52;99235.44;;;1.12;85.95
72685;BME280;61365;52.162;4.500;2023-03-09T00:49:19;99229.69;;;1.39;86.05
72685;BME280;61365;52.162;4.500;2023-03-09T00:51:45;99248.72;;;1.43;84.98
72685;BME280;61365;52.162;4.500;2023-03-09T00:54:13;99238.13;;;1.19;85.15
72685;BME280;61365;52.162;4.500;2023-03-09T00:56:41;99249.13;;;1.04;86.10
72685;BME280;61365;52.162;4.500;2023-03-09T00:59:08;99239.56;;;0.96;87.32
72685;BME280;61365;52.162;4.500;2023-03-09T01:01:34;99248.53;;;1.24;86.05
72685;BME280;61365;52.162;4.500;2023-03-09T01:04:00;99260.72;;;1.36;85.88
72685;BME280;61365;52.162;4.500;2023-03-09T01:06:29;99271.66;;;1.15;85.54
72685;BME280;61365;52.162;4.500;2023-03-09T01:08:55;99276.31;;;1.45;85.32
72685;BME280;61365;52.162;4.500;2023-03-09T01:11:22;99271.19;;;1.50;84.98
72685;BME280;61365;52.162;4.500;2023-03-09T01:13:49;99276.22;;;1.38;85.44
72685;BME280;61365;52.162;4.500;2023-03-09T01:16:16;99287.72;;;1.63;84.61
72685;BME280;61365;52.162;4.500;2023-03-09T01:18:43;99289.38;;;1.59;84.07
72685;BME280;61365;52.162;4.500;2023-03-09T01:21:10;99291.25;;;1.73;83.85
72685;BME280;61365;52.162;4.500;2023-03-09T01:23:38;99299.72;;;1.58;85.24
72685;BME280;61365;52.162;4.500;2023-03-09T01:26:06;99302.44;;;1.72;85.09
72685;BME280;61365;52.162;4.500;2023-03-09T01:28:33;99301.44;;;1.59;84.75
72685;BME280;61365;52.162;4.500;2023-03-09T01:31:05;99298.69;;;1.43;85.31
72685;BME280;61365;52.162;4.500;2023-03-09T01:33:36;99303.88;;;1.45;85.71
72685;BME280;61365;52.162;4.500;2023-03-09T01:36:05;99313.41;;;1.52;85.66
72685;BME280;61365;52.162;4.500;2023-03-09T01:38:33;99315.06;;;1.44;84.75
72685;BME280;61365;52.162;4.500;2023-03-09T01:41:00;99315.06;;;1.44;85.71
72685;BME280;61365;52.162;4.500;2023-03-09T01:46:25;99322.56;;;1.22;86.53
72685;BME280;61365;52.162;4.500;2023-03-09T01:49:05;99316.00;;;1.52;86.17
72685;BME280;61365;52.162;4.500;2023-03-09T01:51:41;99320.44;;;1.62;85.37
72685;BME280;61365;52.162;4.500;2023-03-09T01:54:23;99337.53;;;1.49;85.05
72685;BME280;61365;52.162;4.500;2023-03-09T01:57:00;99328.16;;;1.58;85.57
72685;BME280;61365;52.162;4.500;2023-03-09T01:59:32;99324.03;;;1.74;85.59
72685;BME280;61365;52.162;4.500;2023-03-09T02:02:01;99329.84;;;1.56;85.52
72685;BME280;61365;52.162;4.500;2023-03-09T02:04:37;99324.84;;;1.70;84.79
72685;BME280;61365;52.162;4.500;2023-03-09T02:07:12;99334.47;;;1.85;84.60
72685;BME280;61365;52.162;4.500;2023-03-09T02:09:53;99333.72;;;1.97;84.13
72685;BME280;61365;52.162;4.500;2023-03-09T02:12:25;99318.06;;;1.83;83.09
72685;BME280;61365;52.162;4.500;2023-03-09T02:14:53;99310.50;;;2.06;83.08
72685;BME280;61365;52.162;4.500;2023-03-09T02:17:22;99307.75;;;1.86;83.84
72685;BME280;61365;52.162;4.500;2023-03-09T02:22:15;99312.66;;;1.58;85.22
72685;BME280;61365;52.162;4.500;2023-03-09T02:27:45;99328.88;;;1.47;85.60
72685;BME280;61365;52.162;4.500;2023-03-09T02:30:12;99345.44;;;1.65;85.07
72685;BME280;61365;52.162;4.500;2023-03-09T02:32:39;99336.06;;;1.73;85.00
72685;BME280;61365;52.162;4.500;2023-03-09T02:35:06;99337.41;;;1.40;86.20
72685;BME280;61365;52.162;4.500;2023-03-09T02:37:38;99331.66;;;1.63;85.30
72685;BME280;61365;52.162;4.500;2023-03-09T02:40:18;99325.78;;;1.05;87.32
72685;BME280;61365;52.162;4.500;2023-03-09T02:42:54;99326.44;;;0.87;88.43
72685;BME280;61365;52.162;4.500;2023-03-09T02:45:22;99331.44;;;1.43;87.38
72685;BME280;61365;52.162;4.500;2023-03-09T02:47:48;99337.41;;;1.40;86.89
72685;BME280;61365;52.162;4.500;2023-03-09T02:50:16;99338.97;;;1.24;86.92
72685;BME280;61365;52.162;4.500;2023-03-09T02:52:43;99341.47;;;1.19;88.29
72685;BME280;61365;52.162;4.500;2023-03-09T02:55:10;99347.56;;;1.23;88.42
72685;BME280;61365;52.162;4.500;2023-03-09T02:57:36;99347.56;;;1.26;88.42
72685;BME280;61365;52.162;4.500;2023-03-09T03:00:04;99353.44;;;1.11;88.50
72685;BME280;61365;52.162;4.500;2023-03-09T03:02:37;99341.59;;;1.29;88.23
72685;BME280;61365;52.162;4.500;2023-03-09T03:05:05;99354.59;;;1.35;87.98
72685;BME280;61365;52.162;4.500;2023-03-09T03:07:33;99356.59;;;1.58;87.49
72685;BME280;61365;52.162;4.500;2023-03-09T03:09:59;99352.16;;;1.46;86.51
72685;BME280;61365;52.162;4.500;2023-03-09T03:12:25;99358.34;;;1.60;86.65
72685;BME280;61365;52.162;4.500;2023-03-09T03:14:52;99364.41;;;1.62;86.31
72685;BME280;61365;52.162;4.500;2023-03-09T03:17:18;99362.66;;;1.60;86.86
72685;BME280;61365;52.162;4.500;2023-03-09T03:19:44;99361.44;;;1.30;87.86
72685;BME280;61365;52.162;4.500;2023-03-09T03:22:11;99367.56;;;1.38;87.57
72685;BME280;61365;52.162;4.500;2023-03-09T03:24:38;99374.22;;;1.19;88.47
72685;BME280;61365;52.162;4.500;2023-03-09T03:27:05;99377.94;;;1.41;87.78
72685;BME280;61365;52.162;4.500;2023-03-09T03:29:32;99371.09;;;1.45;87.12
72685;BME280;61365;52.162;4.500;2023-03-09T03:31:59;99378.81;;;1.43;88.11
72685;BME280;61365;52.162;4.500;2023-03-09T03:34:25;99387.38;;;1.36;88.18
72685;BME280;61365;52.162;4.500;2023-03-09T03:36:51;99390.25;;;1.61;88.10
72685;BME280;61365;52.162;4.500;2023-03-09T03:39:18;99389.41;;;1.63;87.61
72685;BME280;61365;52.162;4.500;2023-03-09T03:41:44;99384.34;;;1.73;86.01
72685;BME280;61365;52.162;4.500;2023-03-09T03:44:11;99395.47;;;1.65;87.31
72685;BME280;61365;52.162;4.500;2023-03-09T03:46:37;99397.88;;;1.52;87.34
72685;BME280;61365;52.162;4.500;2023-03-09T03:49:03;99400.59;;;1.64;87.93
72685;BME280;61365;52.162;4.500;2023-03-09T03:51:30;99419.47;;;1.55;87.42
72685;BME280;61365;52.162;4.500;2023-03-09T03:53:56;99423.03;;;1.65;86.57
72685;BME280;61365;52.162;4.500;2023-03-09T03:56:22;99429.94;;;1.66;86.70
72685;BME280;61365;52.162;4.500;2023-03-09T03:58:49;99447.28;;;1.72;85.95
72685;BME280;61365;52.162;4.500;2023-03-09T04:01:15;99460.97;;;1.64;87.06
72685;BME280;61365;52.162;4.500;2023-03-09T04:03:42;99451.44;;;1.60;86.60
72685;BME280;61365;52.162;4.500;2023-03-09T04:06:08;99451.13;;;1.37;87.48
72685;BME280;61365;52.162;4.500;2023-03-09T04:08:34;99456.56;;;1.57;87.09
72685;BME280;61365;52.162;4.500;2023-03-09T04:11:05;99464.16;;;1.45;87.38
72685;BME280;61365;52.162;4.500;2023-03-09T04:13:33;99457.34;;;1.50;87.41
72685;BME280;61365;52.162;4.500;2023-03-09T04:15:59;99471.19;;;1.55;86.52
72685;BME280;61365;52.162;4.500;2023-03-09T04:18:25;99472.69;;;1.39;86.98
72685;BME280;61365;52.162;4.500;2023-03-09T04:20:53;99471.25;;;1.61;86.71
72685;BME280;61365;52.162;4.500;2023-03-09T04:23:19;99475.59;;;1.61;87.24
72685;BME280;61365;52.162;4.500;2023-03-09T04:25:57;99471.44;;;1.75;85.97
72685;BME280;61365;52.162;4.500;2023-03-09T04:28:25;99473.72;;;1.50;86.07
72685;BME280;61365;52.162;4.500;2023-03-09T04:30:51;99471.44;;;1.74;85.59
72685;BME280;61365;52.162;4.500;2023-03-09T04:33:18;99492.09;;;1.71;85.69
72685;BME280;61365;52.162;4.500;2023-03-09T04:35:44;99485.50;;;1.31;85.65
72685;BME280;61365;52.162;4.500;2023-03-09T04:38:12;99489.81;;;1.31;87.73
72685;BME280;61365;52.162;4.500;2023-03-09T04:40:38;99486.63;;;1.49;86.29
72685;BME280;61365;52.162;4.500;2023-03-09T04:43:05;99490.91;;;1.48;86.19
72685;BME280;61365;52.162;4.500;2023-03-09T04:45:32;99490.44;;;1.17;86.93
72685;BME280;61365;52.162;4.500;2023-03-09T04:47:59;99485.78;;;1.52;85.89
72685;BME280;61365;52.162;4.500;2023-03-09T04:50:26;99489.97;;;1.43;85.89
72685;BME280;61365;52.162;4.500;2023-03-09T04:52:52;99479.44;;;1.29;85.96
72685;BME280;61365;52.162;4.500;2023-03-09T04:55:21;99483.75;;;1.30;86.17
72685;BME280;61365;52.162;4.500;2023-03-09T04:57:48;99487.34;;;1.40;85.70
72685;BME280;61365;52.162;4.500;2023-03-09T05:00:14;99482.09;;;1.34;86.06
72685;BME280;61365;52.162;4.500;2023-03-09T05:02:41;99496.56;;;1.21;85.69
72685;BME280;61365;52.162;4.500;2023-03-09T05:05:09;99482.84;;;1.27;86.47
72685;BME280;61365;52.162;4.500;2023-03-09T05:07:36;99484.38;;;1.14;85.85
72685;BME280;61365;52.162;4.500;2023-03-09T05:10:03;99488.41;;;0.96;86.88
72685;BME280;61365;52.162;4.500;2023-03-09T05:12:30;99486.22;;;1.23;86.39
72685;BME280;61365;52.162;4.500;2023-03-09T05:15:02;99476.84;;;1.28;85.42
72685;BME280;61365;52.162;4.500;2023-03-09T05:17:29;99487.19;;;1.28;85.51
72685;BME280;61365;52.162;4.500;2023-03-09T05:19:56;99500.88;;;1.24;85.86
72685;BME280;61365;52.162;4.500;2023-03-09T05:22:23;99515.41;;;1.15;86.06
72685;BME280;61365;52.162;4.500;2023-03-09T05:24:49;99518.41;;;1.43;84.78
72685;BME280;61365;52.162;4.500;2023-03-09T05:27:15;99526.00;;;1.31;85.79
72685;BME280;61365;52.162;4.500;2023-03-09T05:29:42;99532.63;;;1.13;85.43
72685;BME280;61365;52.162;4.500;2023-03-09T05:32:08;99530.88;;;1.14;86.10
72685;BME280;61365;52.162;4.500;2023-03-09T05:34:35;99534.09;;;0.99;86.75
72685;BME280;61365;52.162;4.500;2023-03-09T05:37:01;99535.09;;;1.07;86.45
72685;BME280;61365;52.162;4.500;2023-03-09T05:39:28;99546.78;;;1.39;85.42
72685;BME280;61365;52.162;4.500;2023-03-09T05:41:54;99549.94;;;1.20;85.09
72685;BME280;61365;52.162;4.500;2023-03-09T05:44:20;99537.34;;;1.42;85.00
72685;BME280;61365;52.162;4.500;2023-03-09T05:46:47;99543.97;;;1.23;85.40
72685;BME280;61365;52.162;4.500;2023-03-09T05:49:13;99548.53;;;1.41;84.92
72685;BME280;61365;52.162;4.500;2023-03-09T05:51:40;99542.72;;;0.99;86.63
72685;BME280;61365;52.162;4.500;2023-03-09T05:54:06;99550.88;;;1.26;85.26
72685;BME280;61365;52.162;4.500;2023-03-09T05:56:32;99553.41;;;1.21;85.90
72685;BME280;61365;52.162;4.500;2023-03-09T05:58:59;99556.22;;;1.35;85.77
72685;BME280;61365;52.162;4.500;2023-03-09T06:01:27;99563.81;;;1.27;86.18
72685;BME280;61365;52.162;4.500;2023-03-09T06:03:54;99570.88;;;1.36;85.21
72685;BME280;61365;52.162;4.500;2023-03-09T06:06:22;99567.84;;;1.08;86.13
72685;BME280;61365;52.162;4.500;2023-03-09T06:08:49;99570.72;;;1.28;85.50
72685;BME280;61365;52.162;4.500;2023-03-09T06:11:15;99572.25;;;1.15;85.69
72685;BME280;61365;52.162;4.500;2023-03-09T06:13:42;99571.56;;;1.24;85.94
72685;BME280;61365;52.162;4.500;2023-03-09T06:16:12;99579.13;;;1.70;84.14
72685;BME280;61365;52.162;4.500;2023-03-09T06:18:42;99590.66;;;1.34;85.34
72685;BME280;61365;52.162;4.500;2023-03-09T06:21:11;99599.31;;;1.38;84.42
72685;BME280;61365;52.162;4.500;2023-03-09T06:23:38;99595.97;;;1.43;84.85
72685;BME280;61365;52.162;4.500;2023-03-09T06:26:08;99595.91;;;1.40;84.36
72685;BME280;61365;52.162;4.500;2023-03-09T06:28:36;99603.72;;;1.42;84.60
72685;BME280;61365;52.162;4.500;2023-03-09T06:31:07;99613.88;;;1.31;84.45
72685;BME280;61365;52.162;4.500;2023-03-09T06:33:39;99618.25;;;1.37;85.49
72685;BME280;61365;52.162;4.500;2023-03-09T06:36:08;99616.28;;;1.22;85.26
72685;BME280;61365;52.162;4.500;2023-03-09T06:38:36;99631.69;;;1.15;86.10
72685;BME280;61365;52.162;4.500;2023-03-09T06:41:03;99632.56;;;1.17;86.13
72685;BME280;61365;52.162;4.500;2023-03-09T06:43:29;99641.53;;;1.37;84.52
72685;BME280;61365;52.162;4.500;2023-03-09T06:45:56;99634.59;;;1.34;84.04
72685;BME280;61365;52.162;4.500;2023-03-09T06:48:23;99639.78;;;1.35;84.26
72685;BME280;61365;52.162;4.500;2023-03-09T06:50:49;99652.31;;;1.12;85.50
72685;BME280;61365;52.162;4.500;2023-03-09T06:53:16;99652.66;;;1.32;85.56
72685;BME280;61365;52.162;4.500;2023-03-09T06:55:42;99654.50;;;1.40;84.58
72685;BME280;61365;52.162;4.500;2023-03-09T06:58:10;99651.31;;;1.55;85.14
72685;BME280;61365;52.162;4.500;2023-03-09T07:00:37;99654.25;;;1.78;84.00
72685;BME280;61365;52.162;4.500;2023-03-09T07:03:15;99653.41;;;1.77;83.60
72685;BME280;61365;52.162;4.500;2023-03-09T07:05:44;99661.88;;;1.69;83.43
72685;BME280;61365;52.162;4.500;2023-03-09T07:08:10;99662.56;;;1.57;83.83
72685;BME280;61365;52.162;4.500;2023-03-09T07:10:36;99674.41;;;1.45;84.96
72685;BME280;61365;52.162;4.500;2023-03-09T07:13:03;99679.88;;;1.61;84.53
72685;BME280;61365;52.162;4.500;2023-03-09T07:15:30;99681.78;;;1.74;84.05
72685;BME280;61365;52.162;4.500;2023-03-09T07:17:56;99684.81;;;1.47;84.48
72685;BME280;61365;52.162;4.500;2023-03-09T07:20:25;99682.84;;;1.86;84.89
72685;BME280;61365;52.162;4.500;2023-03-09T07:22:52;99689.75;;;1.87;83.88
72685;BME280;61365;52.162;4.500;2023-03-09T07:25:18;99690.72;;;1.95;82.74
72685;BME280;61365;52.162;4.500;2023-03-09T07:27:44;99681.34;;;2.00;84.10
72685;BME280;61365;52.162;4.500;2023-03-09T07:30:13;99705.19;;;1.82;83.51
72685;BME280;61365;52.162;4.500;2023-03-09T07:32:40;99702.09;;;2.03;83.09
72685;BME280;61365;52.162;4.500;2023-03-09T07:35:07;99722.00;;;2.09;81.94
72685;BME280;61365;52.162;4.500;2023-03-09T07:37:33;99717.94;;;1.71;83.17
72685;BME280;61365;52.162;4.500;2023-03-09T07:40:00;99708.78;;;1.90;82.79
72685;BME280;61365;52.162;4.500;2023-03-09T07:42:27;99713.75;;;1.78;84.74
72685;BME280;61365;52.162;4.500;2023-03-09T07:44:53;99711.25;;;1.83;85.71
72685;BME280;61365;52.162;4.500;2023-03-09T07:47:19;99724.03;;;1.73;84.94
72685;BME280;61365;52.162;4.500;2023-03-09T07:49:45;99722.34;;;1.77;83.55
72685;BME280;61365;52.162;4.500;2023-03-09T07:52:12;99722.34;;;1.75;82.76
72685;BME280;61365;52.162;4.500;2023-03-09T07:54:38;99727.97;;;2.03;82.04
72685;BME280;61365;52.162;4.500;2023-03-09T07:57:05;99719.09;;;1.87;83.13
72685;BME280;61365;52.162;4.500;2023-03-09T07:59:31;99727.56;;;1.78;82.96
72685;BME280;61365;52.162;4.500;2023-03-09T08:01:58;99743.81;;;1.71;84.11
72685;BME280;61365;52.162;4.500;2023-03-09T08:04:24;99750.34;;;1.49;85.35
72685;BME280;61365;52.162;4.500;2023-03-09T08:06:51;99738.50;;;1.63;84.96
72685;BME280;61365;52.162;4.500;2023-03-09T08:09:18;99733.53;;;1.27;85.85
72685;BME280;61365;52.162;4.500;2023-03-09T08:11:44;99740.84;;;1.48;84.47
72685;BME280;61365;52.162;4.500;2023-03-09T08:14:11;99746.94;;;1.52;83.99
72685;BME280;61365;52.162;4.500;2023-03-09T08:16:37;99756.75;;;1.71;84.62
72685;BME280;61365;52.162;4.500;2023-03-09T08:19:04;99752.78;;;1.92;83.19
72685;BME280;61365;52.162;4.500;2023-03-09T08:21:30;99762.94;;;1.79;82.81
72685;BME280;61365;52.162;4.500;2023-03-09T08:23:57;99772.63;;;1.91;84.82
72685;BME280;61365;52.162;4.500;2023-03-09T08:26:25;99777.84;;;1.94;84.23
72685;BME280;61365;52.162;4.500;2023-03-09T08:28:51;99786.94;;;1.72;83.76
72685;BME280;61365;52.162;4.500;2023-03-09T08:31:18;99770.16;;;1.98;82.91
72685;BME280;61365;52.162;4.500;2023-03-09T08:33:45;99775.25;;;1.94;82.80
72685;BME280;61365;52.162;4.500;2023-03-09T08:36:12;99771.16;;;2.07;82.57
72685;BME280;61365;52.162;4.500;2023-03-09T08:38:44;99766.59;;;1.92;83.36
72685;BME280;61365;52.162;4.500;2023-03-09T08:41:12;99780.72;;;2.13;82.83
72685;BME280;61365;52.162;4.500;2023-03-09T08:43:39;99781.97;;;2.37;82.53
72685;BME280;61365;52.162;4.500;2023-03-09T08:46:05;99788.09;;;2.42;82.57
72685;BME280;61365;52.162;4.500;2023-03-09T08:48:33;99787.59;;;2.09;82.58
72685;BME280;61365;52.162;4.500;2023-03-09T08:51:01;99796.31;;;2.16;82.51
72685;BME280;61365;52.162;4.500;2023-03-09T08:53:30;99806.31;;;1.94;82.69
72685;BME280;61365;52.162;4.500;2023-03-09T08:55:56;99814.81;;;2.39;81.79
72685;BME280;61365;52.162;4.500;2023-03-09T08:58:23;99820.00;;;2.39;81.62
72685;BME280;61365;52.162;4.500;2023-03-09T09:00:49;99829.75;;;2.56;81.60
72685;BME280;61365;52.162;4.500;2023-03-09T09:03:18;99816.47;;;2.36;81.05
72685;BME280;61365;52.162;4.500;2023-03-09T09:05:44;99813.59;;;2.17;82.66
72685;BME280;61365;52.162;4.500;2023-03-09T09:08:10;99805.09;;;2.24;81.97
72685;BME280;61365;52.162;4.500;2023-03-09T09:10:39;99792.00;;;2.15;82.88
72685;BME280;61365;52.162;4.500;2023-03-09T09:13:08;99793.03;;;2.27;82.18
72685;BME280;61365;52.162;4.500;2023-03-09T09:15:35;99802.28;;;2.12;81.56
72685;BME280;61365;52.162;4.500;2023-03-09T09:18:03;99804.00;;;2.12;81.95
72685;BME280;61365;52.162;4.500;2023-03-09T09:20:30;99805.22;;;2.32;81.40
72685;BME280;61365;52.162;4.500;2023-03-09T09:22:56;99800.16;;;2.40;82.44
72685;BME280;61365;52.162;4.500;2023-03-09T09:25:22;99801.44;;;2.13;82.66
72685;BME280;61365;52.162;4.500;2023-03-09T09:27:52;99810.25;;;2.24;82.50
72685;BME280;61365;52.162;4.500;2023-03-09T09:30:18;99811.88;;;2.75;80.78
72685;BME280;61365;52.162;4.500;2023-03-09T09:32:45;99830.25;;;2.35;81.06
72685;BME280;61365;52.162;4.500;2023-03-09T09:35:11;99823.03;;;2.69;80.54
72685;BME280;61365;52.162;4.500;2023-03-09T09:37:38;99822.69;;;2.47;81.83
72685;BME280;61365;52.162;4.500;2023-03-09T09:40:11;99831.38;;;2.49;81.07
72685;BME280;61365;52.162;4.500;2023-03-09T09:42:41;99830.66;;;2.60;80.61
72685;BME280;61365;52.162;4.500;2023-03-09T09:45:33;99835.94;;;2.66;82.02
72685;BME280;61365;52.162;4.500;2023-03-09T09:48:05;99832.44;;;2.64;81.15
72685;BME280;61365;52.162;4.500;2023-03-09T09:53:49;99823.56;;;2.48;81.49
72685;BME280;61365;52.162;4.500;2023-03-09T09:56:46;99815.16;;;2.61;81.56
72685;BME280;61365;52.162;4.500;2023-03-09T09:59:25;99815.16;;;2.63;81.85
72685;BME280;61365;52.162;4.500;2023-03-09T10:02:11;99821.13;;;2.59;81.11
72685;BME280;61365;52.162;4.500;2023-03-09T10:05:19;99823.66;;;2.55;80.53
72685;BME280;61365;52.162;4.500;2023-03-09T10:10:45;99829.22;;;2.80;78.96
72685;BME280;61365;52.162;4.500;2023-03-09T10:13:20;99827.22;;;2.61;79.05
72685;BME280;61365;52.162;4.500;2023-03-09T10:15:54;99807.78;;;3.63;81.45
72685;BME280;61365;52.162;4.500;2023-03-09T10:18:34;99806.44;;;4.04;78.75
72685;BME280;61365;52.162;4.500;2023-03-09T10:21:13;99803.47;;;3.65;76.82
72685;BME280;61365;52.162;4.500;2023-03-09T10:23:44;99806.03;;;2.88;78.85
72685;BME280;61365;52.162;4.500;2023-03-09T10:28:48;99810.31;;;2.88;79.02
72685;BME280;61365;52.162;4.500;2023-03-09T10:31:28;99803.88;;;2.59;80.93
72685;BME280;61365;52.162;4.500;2023-03-09T10:34:23;99812.66;;;2.69;80.25
72685;BME280;61365;52.162;4.500;2023-03-09T10:37:02;99810.88;;;2.66;81.75
72685;BME280;61365;52.162;4.500;2023-03-09T10:39:46;99809.81;;;2.53;81.12
72685;BME280;61365;52.162;4.500;2023-03-09T10:42:24;99807.81;;;2.95;80.85
72685;BME280;61365;52.162;4.500;2023-03-09T10:48:02;99814.59;;;2.85;79.77
72685;BME280;61365;52.162;4.500;2023-03-09T10:50:39;99823.22;;;2.83;80.31
72685;BME280;61365;52.162;4.500;2023-03-09T10:56:23;99833.16;;;3.17;79.23
72685;BME280;61365;52.162;4.500;2023-03-09T11:01:29;99832.66;;;2.79;80.77
72685;BME280;61365;52.162;4.500;2023-03-09T11:03:55;99842.66;;;3.16;80.58
72685;BME280;61365;52.162;4.500;2023-03-09T11:06:34;99831.59;;;3.31;79.38
72685;BME280;61365;52.162;4.500;2023-03-09T11:09:25;99829.25;;;3.51;77.34
72685;BME280;61365;52.162;4.500;2023-03-09T11:15:00;99828.59;;;2.97;80.96
72685;BME280;61365;52.162;4.500;2023-03-09T11:31:02;99818.63;;;3.29;80.17
72685;BME280;61365;52.162;4.500;2023-03-09T11:33:29;99821.09;;;3.20;80.39
72685;BME280;61365;52.162;4.500;2023-03-09T11:35:56;99825.16;;;2.99;81.33
72685;BME280;61365;52.162;4.500;2023-03-09T11:38:25;99819.69;;;2.76;83.18
72685;BME280;61365;52.162;4.500;2023-03-09T11:47:32;99822.19;;;2.72;83.47
72685;BME280;61365;52.162;4.500;2023-03-09T11:50:14;99812.50;;;2.60;84.36
72685;BME280;61365;52.162;4.500;2023-03-09T11:52:51;99814.72;;;2.93;84.10
72685;BME280;61365;52.162;4.500;2023-03-09T11:55:28;99813.84;;;2.94;84.02
72685;BME280;61365;52.162;4.500;2023-03-09T11:58:01;99811.97;;;2.82;84.79
72685;BME280;61365;52.162;4.500;2023-03-09T12:00:33;99806.31;;;3.11;83.67
72685;BME280;61365;52.162;4.500;2023-03-09T12:03:12;99806.97;;;2.96;84.86
72685;BME280;61365;52.162;4.500;2023-03-09T12:05:49;99803.41;;;2.87;84.56
72685;BME280;61365;52.162;4.500;2023-03-09T12:13:46;99789.94;;;3.14;84.35
72685;BME280;61365;52.162;4.500;2023-03-09T12:16:29;99795.97;;;3.14;84.40
72685;BME280;61365;52.162;4.500;2023-03-09T12:19:13;99785.75;;;2.61;84.89
72685;BME280;61365;52.162;4.500;2023-03-09T12:24:31;99777.03;;;2.54;86.04
72685;BME280;61365;52.162;4.500;2023-03-09T12:27:13;99770.16;;;2.56;86.23
72685;BME280;61365;52.162;4.500;2023-03-09T12:29:50;99768.38;;;2.53;87.26
72685;BME280;61365;52.162;4.500;2023-03-09T12:34:54;99750.94;;;2.40;87.20
72685;BME280;61365;52.162;4.500;2023-03-09T12:42:47;99728.81;;;2.62;86.73
72685;BME280;61365;52.162;4.500;2023-03-09T12:47:49;99738.75;;;2.31;87.70
72685;BME280;61365;52.162;4.500;2023-03-09T12:53:15;99728.75;;;1.99;88.77
72685;BME280;61365;52.162;4.500;2023-03-09T12:55:57;99722.69;;;1.97;89.11
72685;BME280;61365;52.162;4.500;2023-03-09T13:09:31;99750.78;;;2.29;87.60
72685;BME280;61365;52.162;4.500;2023-03-09T13:20:39;99756.59;;;2.13;89.05
72685;BME280;61365;52.162;4.500;2023-03-09T13:23:15;99755.81;;;2.20;88.63
72685;BME280;61365;52.162;4.500;2023-03-09T13:25:50;99758.94;;;1.99;89.58
72685;BME280;61365;52.162;4.500;2023-03-09T13:28:39;99760.41;;;2.38;88.61
72685;BME280;61365;52.162;4.500;2023-03-09T13:31:27;99749.75;;;2.18;88.65
72685;BME280;61365;52.162;4.500;2023-03-09T13:33:55;99747.81;;;2.04;88.61
72685;BME280;61365;52.162;4.500;2023-03-09T13:36:23;99735.78;;;2.06;88.32
72685;BME280;61365;52.162;4.500;2023-03-09T13:39:02;99733.97;;;2.01;89.11
72685;BME280;61365;52.162;4.500;2023-03-09T13:41:33;99731.50;;;2.10;89.10
72685;BME280;61365;52.162;4.500;2023-03-09T13:44:00;99730.38;;;1.92;88.10
72685;BME280;61365;52.162;4.500;2023-03-09T13:46:30;99716.44;;;1.84;88.19
72685;BME280;61365;52.162;4.500;2023-03-09T13:49:07;99716.91;;;1.60;89.77
72685;BME280;61365;52.162;4.500;2023-03-09T13:52:06;99708.44;;;1.70;90.32
72685;BME280;61365;52.162;4.500;2023-03-09T13:54:55;99706.09;;;1.84;89.09
72685;BME280;61365;52.162;4.500;2023-03-09T13:57:32;99709.56;;;1.86;89.24
72685;BME280;61365;52.162;4.500;2023-03-09T14:02:46;99697.59;;;1.91;88.52
72685;BME280;61365;52.162;4.500;2023-03-09T14:05:21;99695.00;;;1.93;90.12
72685;BME280;61365;52.162;4.500;2023-03-09T14:07:56;99700.91;;;1.83;89.56
72685;BME280;61365;52.162;4.500;2023-03-09T14:10:35;99684.66;;;1.93;90.44
72685;BME280;61365;52.162;4.500;2023-03-09T14:13:05;99695.69;;;1.79;89.96
72685;BME280;61365;52.162;4.500;2023-03-09T14:15:39;99685.94;;;2.20;90.66
72685;BME280;61365;52.162;4.500;2023-03-09T14:18:22;99683.19;;;2.09;89.92
72685;BME280;61365;52.162;4.500;2023-03-09T14:20:52;99682.59;;;2.29;88.64
72685;BME280;61365;52.162;4.500;2023-03-09T14:23:31;99678.16;;;2.20;88.90
72685;BME280;61365;52.162;4.500;2023-03-09T14:26:08;99673.44;;;2.54;88.23
72685;BME280;61365;52.162;4.500;2023-03-09T14:28:40;99675.09;;;1.87;90.45
72685;BME280;61365;52.162;4.500;2023-03-09T14:31:19;99669.44;;;2.13;90.25
72685;BME280;61365;52.162;4.500;2023-03-09T14:36:38;99671.34;;;2.23;91.15
72685;BME280;61365;52.162;4.500;2023-03-09T14:39:30;99660.88;;;2.17;91.40
72685;BME280;61365;52.162;4.500;2023-03-09T14:44:38;99640.22;;;2.22;92.50
72685;BME280;61365;52.162;4.500;2023-03-09T14:47:13;99644.78;;;2.40;90.73
72685;BME280;61365;52.162;4.500;2023-03-09T14:49:40;99635.84;;;2.18;91.66
72685;BME280;61365;52.162;4.500;2023-03-09T14:52:10;99637.53;;;2.13;92.25
72685;BME280;61365;52.162;4.500;2023-03-09T14:54:38;99625.31;;;2.04;92.53
72685;BME280;61365;52.162;4.500;2023-03-09T14:57:04;99622.09;;;2.20;92.57
72685;BME280;61365;52.162;4.500;2023-03-09T14:59:31;99609.06;;;2.14;91.89
72685;BME280;61365;52.162;4.500;2023-03-09T15:02:00;99615.84;;;2.04;92.43